Time;durP1;ratioP1;P1;durP2;ratioP2;P2;SDS_P1;SDS_P2;PMS_P1;PMS_P2;Temp;Humidity;BMP_temperature;BMP_pressure;BME280_temperature;BME280_humidity;BME280_pressure;Samples;Min_cycle;Max_cycle;Signal;HPM_P1;HPM_P2
2021/03/27 00:01:53;;;;;;;16.35;12.18;;;10.80;99.90;;;;;;5032068;28;20067;-73
2021/03/27 00:04:25;;;;;;;19.48;12.75;;;10.80;99.90;;;;;;5019681;28;20837;-77
2021/03/27 00:06:59;;;;;;;27.48;19.38;;;10.70;99.90;;;;;;5031870;28;20061;-74
2021/03/27 00:09:33;;;;;;;21.55;14.73;;;10.60;99.90;;;;;;5030213;28;20033;-78
2021/03/27 00:12:29;;;;;;;28.52;19.58;;;10.70;99.90;;;;;;5012187;28;20494;-78
2021/03/27 00:15:02;;;;;;;18.63;13.95;;;10.70;99.90;;;;;;5018107;28;20030;-77
2021/03/27 00:17:58;;;;;;;22.10;14.50;;;10.70;99.90;;;;;;5012109;28;20041;-73
2021/03/27 00:20:35;;;;;;;53.63;34.78;;;10.70;99.90;;;;;;5017465;28;20113;-73
2021/03/27 00:23:04;;;;;;;42.47;26.17;;;10.70;99.90;;;;;;5011557;28;20816;-78
2021/03/27 00:25:46;;;;;;;41.13;25.98;;;10.70;99.90;;;;;;5018177;28;20400;-78
2021/03/27 00:28:34;;;;;;;28.30;22.37;;;10.70;99.90;;;;;;5011877;28;20392;-78
2021/03/27 00:31:14;;;;;;;29.27;21.15;;;10.70;99.90;;;;;;5026409;28;20037;-77
2021/03/27 00:34:07;;;;;;;35.17;21.90;;;10.70;99.90;;;;;;5031718;28;20371;-77
2021/03/27 00:36:58;;;;;;;25.05;19.05;;;10.50;99.90;;;;;;5029255;28;20041;-78
2021/03/27 00:39:43;;;;;;;17.35;12.80;;;10.50;99.90;;;;;;5031482;28;20029;-78
2021/03/27 00:42:17;;;;;;;18.50;12.23;;;10.60;99.90;;;;;;5016415;28;20034;-77
2021/03/27 00:45:00;;;;;;;18.48;13.07;;;10.60;99.90;;;;;;5011695;28;20379;-73
2021/03/27 00:47:29;;;;;;;22.08;14.70;;;10.50;99.90;;;;;;5015962;28;20419;-78
2021/03/27 00:50:15;;;;;;;25.58;19.33;;;10.60;99.90;;;;;;5012052;28;20108;-78
2021/03/27 00:52:46;;;;;;;22.42;16.95;;;10.60;99.90;;;;;;5030842;28;20037;-74
2021/03/27 00:55:17;;;;;;;25.15;19.20;;;10.60;99.90;;;;;;5030014;28;20026;-77
2021/03/27 00:57:56;;;;;;;34.35;23.10;;;10.70;99.90;;;;;;5029196;28;20369;-77
2021/03/27 01:00:46;;;;;;;35.67;22.50;;;10.70;99.90;;;;;;5017879;28;20024;-77
2021/03/27 01:03:19;;;;;;;23.40;15.10;;;10.70;99.90;;;;;;5013259;28;20081;-73
2021/03/27 01:05:48;;;;;;;22.42;16.13;;;10.70;99.90;;;;;;5021713;28;20036;-74
2021/03/27 01:08:16;;;;;;;30.27;19.65;;;10.60;99.90;;;;;;5030991;28;20033;-77
2021/03/27 01:10:50;;;;;;;34.15;21.85;;;10.50;99.90;;;;;;5017486;28;20421;-77
2021/03/27 01:13:26;;;;;;;29.88;21.30;;;10.50;99.90;;;;;;5031169;28;20045;-77
2021/03/27 01:15:55;;;;;;;25.92;18.50;;;10.50;99.90;;;;;;5030025;28;20378;-76
2021/03/27 01:18:28;;;;;;;23.73;17.38;;;10.60;99.90;;;;;;5031094;28;20064;-77
2021/03/27 01:20:58;;;;;;;23.52;16.67;;;10.50;99.90;;;;;;5023171;28;20374;-77
2021/03/27 01:23:25;;;;;;;21.40;14.98;;;10.50;99.90;;;;;;5030950;28;20378;-77
2021/03/27 01:25:58;;;;;;;18.40;13.15;;;10.50;99.90;;;;;;5030777;28;20032;-77
2021/03/27 01:28:35;;;;;;;16.83;12.88;;;10.50;99.90;;;;;;5022464;28;20092;-77
2021/03/27 01:31:11;;;;;;;19.20;13.27;;;10.60;99.90;;;;;;5026683;28;20025;-77
2021/03/27 01:33:58;;;;;;;18.17;13.20;;;10.50;99.90;;;;;;5028745;28;20493;-76
2021/03/27 01:36:37;;;;;;;17.35;12.25;;;10.60;99.90;;;;;;5017816;28;20149;-77
2021/03/27 01:39:11;;;;;;;16.60;12.25;;;10.60;99.90;;;;;;5030686;28;20071;-76
2021/03/27 01:41:52;;;;;;;18.08;12.35;;;10.60;99.90;;;;;;5023037;28;20043;-76
2021/03/27 01:44:20;;;;;;;15.85;11.45;;;10.60;99.90;;;;;;5027339;28;20068;-73
2021/03/27 01:47:05;;;;;;;17.33;8.43;;;10.60;99.90;;;;;;5029246;28;20028;-77
2021/03/27 01:49:37;;;;;;;11.77;8.07;;;10.50;99.90;;;;;;5022192;28;20136;-74
2021/03/27 01:52:33;;;;;;;20.80;15.90;;;10.50;99.90;;;;;;5029804;28;20024;-77
2021/03/27 01:55:13;;;;;;;17.60;13.85;;;10.40;99.90;;;;;;5006619;28;20088;-74
2021/03/27 01:57:50;;;;;;;17.40;13.20;;;10.30;99.90;;;;;;5015356;28;20026;-73
2021/03/27 02:00:31;;;;;;;12.07;8.35;;;10.20;99.90;;;;;;5016930;28;20030;-77
2021/03/27 02:03:17;;;;;;;6.57;3.47;;;10.00;99.90;;;;;;5016789;28;20117;-77
2021/03/27 02:06:05;;;;;;;5.53;2.25;;;10.00;99.90;;;;;;5022841;28;20060;-77
2021/03/27 02:08:54;;;;;;;3.58;1.98;;;9.90;99.90;;;;;;5024300;28;20029;-77
2021/03/27 02:11:22;;;;;;;3.30;1.55;;;10.00;99.90;;;;;;5029724;28;20048;-74
2021/03/27 02:14:04;;;;;;;3.58;1.70;;;9.90;99.90;;;;;;5029003;28;20075;-77
2021/03/27 02:16:36;;;;;;;4.95;2.00;;;10.00;99.90;;;;;;5029068;28;20061;-77
2021/03/27 02:19:08;;;;;;;5.88;3.80;;;10.00;99.90;;;;;;5026371;28;20087;-73
2021/03/27 02:21:50;;;;;;;;;;;10.10;99.90;;;;;;5020361;28;20040;-77
2021/03/27 02:24:41;;;;;;;4.35;1.80;;;10.10;99.90;;;;;;5029585;28;19968;-77
2021/03/27 02:27:12;;;;;;;3.97;1.83;;;10.10;99.90;;;;;;5015402;28;20045;-77
2021/03/27 02:29:38;;;;;;;3.25;1.52;;;10.10;99.90;;;;;;5029700;28;20033;-77
2021/03/27 02:32:48;;;;;;;4.90;3.08;;;10.10;99.90;;;;;;5029013;28;20021;-73
2021/03/27 02:35:39;;;;;;;8.27;4.10;;;10.10;99.90;;;;;;5006873;28;20076;-77
2021/03/27 02:38:28;;;;;;;8.25;3.85;;;10.10;99.90;;;;;;5013174;28;20034;-73
2021/03/27 02:41:46;;;;;;;6.93;3.53;;;10.00;99.90;;;;;;5009668;28;20049;-74
2021/03/27 02:44:29;;;;;;;4.68;2.65;;;10.10;99.90;;;;;;5018355;28;20462;-77
2021/03/27 02:47:28;;;;;;;8.15;4.70;;;10.10;99.90;;;;;;5016479;28;20029;-73
2021/03/27 02:50:01;;;;;;;10.32;4.20;;;10.00;99.90;;;;;;5021308;28;20037;-74
2021/03/27 02:52:36;;;;;;;6.63;3.22;;;9.80;99.90;;;;;;5021625;28;20049;-77
2021/03/27 02:55:10;;;;;;;4.72;3.20;;;9.90;99.90;;;;;;5028142;28;20045;-73
2021/03/27 02:58:00;;;;;;;6.70;3.85;;;9.90;99.90;;;;;;5029172;28;20037;-77
2021/03/27 03:00:53;;;;;;;9.07;5.68;;;10.00;99.90;;;;;;5028573;28;20033;-75
2021/03/27 03:03:29;;;;;;;7.30;3.80;;;10.00;99.90;;;;;;5027651;28;20049;-74
2021/03/27 03:06:01;;;;;;;3.65;1.50;;;9.90;99.90;;;;;;5028048;28;20051;-77
2021/03/27 03:08:35;;;;;;;3.70;1.30;;;9.70;99.90;;;;;;5028382;28;20101;-74
2021/03/27 03:11:14;;;;;;;8.82;2.80;;;9.70;99.90;;;;;;5028390;28;20386;-77
2021/03/27 03:14:26;;;;;;;2.38;0.80;;;9.60;99.90;;;;;;5028973;28;20058;-77
2021/03/27 03:17:01;;;;;;;4.80;0.40;;;9.50;99.90;;;;;;4997065;28;20053;-74
2021/03/27 03:19:52;;;;;;;1.10;0.30;;;9.20;99.90;;;;;;5010449;28;20042;-74
2021/03/27 03:22:24;;;;;;;0.83;0.30;;;9.00;99.90;;;;;;5029217;28;20569;-77
2021/03/27 03:24:59;;;;;;;3.78;0.43;;;8.90;99.90;;;;;;5032110;28;20079;-76
2021/03/27 03:27:46;;;;;;;1.20;0.40;;;8.70;99.90;;;;;;5017685;28;20113;-77
2021/03/27 03:30:59;;;;;;;1.20;0.35;;;8.70;99.90;;;;;;5027676;28;20041;-77
2021/03/27 03:33:49;;;;;;;0.68;0.25;;;8.60;99.90;;;;;;4988776;28;20042;-76
2021/03/27 03:36:49;;;;;;;3.90;0.63;;;8.40;99.90;;;;;;4988037;28;20030;-76
2021/03/27 03:39:27;;;;;;;0.80;0.30;;;8.30;99.90;;;;;;5009728;28;20064;-77
2021/03/27 03:42:03;;;;;;;1.13;0.40;;;8.20;99.90;;;;;;5024800;28;20032;-76
2021/03/27 03:44:52;;;;;;;2.00;0.50;;;8.20;99.90;;;;;;5032122;28;20064;-76
2021/03/27 03:47:27;;;;;;;0.95;0.30;;;8.40;99.90;;;;;;5032134;28;20033;-76
2021/03/27 03:50:21;;;;;;;4.78;0.80;;;8.30;99.90;;;;;;5032618;28;20037;-73
2021/03/27 03:53:09;;;;;;;3.42;0.60;;;8.30;99.90;;;;;;5025569;28;20037;-76
2021/03/27 03:55:58;;;;;;;1.45;0.35;;;8.20;99.90;;;;;;5032168;28;20037;-73
2021/03/27 03:58:42;;;;;;;1.00;0.30;;;8.10;99.90;;;;;;5013056;28;20034;-77
2021/03/27 04:01:14;;;;;;;1.65;0.30;;;8.20;99.90;;;;;;5014891;28;20383;-77
2021/03/27 04:04:04;;;;;;;0.60;0.20;;;8.20;99.90;;;;;;5031543;28;20049;-76
2021/03/27 04:06:34;;;;;;;2.28;0.50;;;8.20;99.90;;;;;;5018117;28;20038;-77
2021/03/27 04:09:25;;;;;;;0.70;0.32;;;8.30;99.90;;;;;;5032634;28;20116;-73
2021/03/27 04:12:03;;;;;;;1.25;0.30;;;8.20;99.90;;;;;;5016138;28;20072;-73
2021/03/27 04:14:35;;;;;;;1.23;0.38;;;8.30;99.90;;;;;;5030903;28;20041;-76
2021/03/27 04:17:33;;;;;;;0.37;0.30;;;8.20;99.90;;;;;;5016170;28;20098;-73
2021/03/27 04:20:15;;;;;;;5.60;1.08;;;8.30;99.90;;;;;;5031236;28;20040;-76
2021/03/27 04:22:44;;;;;;;;;;;8.30;99.90;;;;;;5032600;28;20037;-77
2021/03/27 04:25:40;;;;;;;1.77;0.65;;;8.30;99.90;;;;;;5031331;28;20015;-73
2021/03/27 04:28:31;;;;;;;1.13;0.40;;;8.10;99.90;;;;;;5031675;28;20084;-77
2021/03/27 04:31:22;;;;;;;1.83;0.50;;;8.10;99.90;;;;;;5022504;28;20029;-73
2021/03/27 04:34:10;;;;;;;2.00;0.40;;;8.10;99.90;;;;;;5025755;28;20048;-76
2021/03/27 04:36:42;;;;;;;2.05;0.38;;;8.20;99.90;;;;;;5031410;28;20038;-77
2021/03/27 04:39:42;;;;;;;1.90;0.40;;;8.10;99.90;;;;;;5031392;28;20025;-74
2021/03/27 04:42:15;;;;;;;1.50;0.40;;;8.10;99.90;;;;;;5021058;28;20037;-73
2021/03/27 04:45:01;;;;;;;1.85;0.60;;;8.20;99.90;;;;;;5030507;28;20196;-73
2021/03/27 04:47:51;;;;;;;2.08;0.50;;;8.20;99.90;;;;;;5031292;28;20099;-73
2021/03/27 04:50:27;;;;;;;2.03;0.50;;;8.20;99.90;;;;;;5031627;28;20577;-77
2021/03/27 04:52:52;;;;;;;2.03;0.40;;;8.30;99.90;;;;;;5031004;28;20063;-77
2021/03/27 04:55:37;;;;;;;1.55;0.63;;;8.30;99.90;;;;;;5031166;28;20569;-78
2021/03/27 04:58:25;;;;;;;2.65;0.77;;;8.40;99.90;;;;;;5014936;28;20042;-73
2021/03/27 05:01:03;;;;;;;3.80;1.50;;;8.40;99.90;;;;;;5031180;28;20064;-76
2021/03/27 05:03:45;;;;;;;5.80;1.33;;;8.40;99.90;;;;;;5014361;28;20084;-77
2021/03/27 05:06:16;;;;;;;3.70;1.25;;;8.40;99.90;;;;;;5031461;28;20025;-73
2021/03/27 05:08:57;;;;;;;2.67;0.80;;;8.40;99.90;;;;;;5029091;28;20065;-76
2021/03/27 05:11:38;;;;;;;2.17;0.80;;;8.30;99.90;;;;;;5017783;28;20021;-76
2021/03/27 05:14:18;;;;;;;2.17;0.80;;;8.30;99.90;;;;;;5019166;28;20487;-76
2021/03/27 05:16:57;;;;;;;1.80;0.77;;;8.30;99.90;;;;;;5031165;28;20026;-76
2021/03/27 05:19:38;;;;;;;3.15;0.85;;;8.30;99.90;;;;;;5026280;28;20049;-77
2021/03/27 05:22:06;;;;;;;1.92;0.52;;;8.30;99.90;;;;;;5018139;28;20065;-76
2021/03/27 05:25:03;;;;;;;1.88;0.70;;;8.30;99.90;;;;;;5016909;28;20037;-77
2021/03/27 05:27:39;;;;;;;2.38;0.90;;;8.40;99.90;;;;;;5009669;28;20602;-76
2021/03/27 05:30:38;;;;;;;1.73;0.98;;;8.40;99.90;;;;;;5030663;28;20108;-77
2021/03/27 05:33:26;;;;;;;3.88;0.88;;;8.40;99.90;;;;;;5008491;28;20415;-77
2021/03/27 05:36:04;;;;;;;3.03;0.80;;;8.40;99.90;;;;;;5030167;28;20475;-74
2021/03/27 05:38:38;;;;;;;2.30;0.55;;;8.40;99.90;;;;;;5029968;28;20083;-73
2021/03/27 05:41:35;;;;;;;2.75;0.60;;;8.30;99.90;;;;;;5030329;28;20036;-76
2021/03/27 05:44:22;;;;;;;2.13;0.70;;;8.30;99.90;;;;;;5028996;28;20048;-76
2021/03/27 05:47:16;;;;;;;2.33;0.93;;;8.30;99.90;;;;;;5030490;28;20529;-76
2021/03/27 05:49:48;;;;;;;5.95;2.08;;;8.30;99.90;;;;;;5020976;28;20052;-76
2021/03/27 05:52:44;;;;;;;5.50;2.55;;;8.20;99.90;;;;;;5018279;28;20057;-77
2021/03/27 05:55:35;;;;;;;6.70;3.25;;;8.30;99.90;;;;;;5013646;28;20525;-76
2021/03/27 05:58:31;;;;;;;7.45;3.63;;;8.30;99.90;;;;;;5029835;28;20497;-76
2021/03/27 06:01:26;;;;;;;6.13;1.85;;;8.40;99.90;;;;;;5023574;28;20084;-77
2021/03/27 06:04:00;;;;;;;3.25;1.00;;;8.40;99.90;;;;;;5010479;28;20060;-77
2021/03/27 06:06:53;;;;;;;2.83;0.93;;;8.40;99.90;;;;;;5012046;28;20554;-74
2021/03/27 06:09:38;;;;;;;3.15;0.93;;;8.40;99.90;;;;;;5009984;28;20045;-76
2021/03/27 06:12:13;;;;;;;3.35;1.30;;;8.40;99.90;;;;;;5018682;28;20037;-76
2021/03/27 06:14:44;;;;;;;2.85;1.08;;;8.40;99.90;;;;;;5035869;28;20029;-77
2021/03/27 06:17:33;;;;;;;6.13;1.50;;;8.30;99.90;;;;;;5033964;28;20048;-74
2021/03/27 06:20:14;;;;;;;2.97;1.30;;;8.30;99.90;;;;;;5043060;28;20029;-76
2021/03/27 06:23:12;;;;;;;5.38;1.58;;;8.30;99.90;;;;;;5034776;28;20379;-73
2021/03/27 06:26:04;;;;;;;2.78;1.17;;;8.40;99.90;;;;;;5010366;28;20126;-77
2021/03/27 06:29:07;;;;;;;4.03;0.90;;;8.50;99.90;;;;;;5019992;28;20060;-77
2021/03/27 06:32:03;;;;;;;2.42;0.98;;;8.50;99.90;;;;;;5016539;28;20110;-74
2021/03/27 06:34:47;;;;;;;4.18;1.50;;;8.50;99.90;;;;;;5019471;28;20398;-77
2021/03/27 06:37:28;;;;;;;3.03;1.00;;;8.40;99.90;;;;;;5020876;28;20038;-76
2021/03/27 06:40:33;;;;;;;2.58;1.17;;;8.50;99.90;;;;;;5024943;28;20056;-76
2021/03/27 06:43:17;;;;;;;2.17;1.02;;;8.50;99.90;;;;;;5007975;28;20125;-76
2021/03/27 06:46:05;;;;;;;3.47;1.17;;;8.50;99.90;;;;;;5020367;28;20036;-76
2021/03/27 06:48:54;;;;;;;3.13;1.38;;;8.50;99.90;;;;;;5025655;28;20641;-73
2021/03/27 06:51:39;;;;;;;4.55;1.48;;;8.40;99.90;;;;;;5034441;28;20830;-73
2021/03/27 06:54:31;;;;;;;3.35;1.02;;;8.50;99.90;;;;;;5015460;28;20045;-76
2021/03/27 06:57:19;;;;;;;2.88;1.27;;;8.50;99.90;;;;;;5023419;28;20040;-74
2021/03/27 06:59:44;;;;;;;4.32;1.60;;;8.50;99.90;;;;;;5025014;28;20054;-76
2021/03/27 07:03:00;;;;;;;3.95;1.17;;;8.40;99.90;;;;;;5021723;28;20026;-77
2021/03/27 07:06:10;;;;;;;4.22;1.20;;;8.40;99.90;;;;;;5028793;28;20049;-73
2021/03/27 07:08:54;;;;;;;3.45;0.80;;;8.30;99.90;;;;;;5019590;28;20040;-76
2021/03/27 07:11:53;;;;;;;3.92;0.95;;;8.30;99.90;;;;;;5018464;28;20046;-77
2021/03/27 07:15:03;;;;;;;4.93;1.10;;;8.30;99.90;;;;;;5027365;28;20060;-74
2021/03/27 07:17:44;;;;;;;5.60;0.90;;;8.30;99.90;;;;;;5022671;28;20026;-74
2021/03/27 07:20:15;;;;;;;4.45;1.20;;;8.30;99.90;;;;;;5027655;28;20545;-77
2021/03/27 07:23:00;;;;;;;4.43;0.90;;;8.30;99.90;;;;;;5027287;28;20018;-74
2021/03/27 07:25:38;;;;;;;3.97;1.08;;;8.30;99.90;;;;;;5018739;28;20120;-78
2021/03/27 07:28:33;;;;;;;3.58;1.00;;;8.40;99.90;;;;;;5025158;28;20037;-78
2021/03/27 07:31:16;;;;;;;3.42;1.00;;;8.20;99.90;;;;;;5035837;28;20585;-78
2021/03/27 07:34:04;;;;;;;4.68;1.40;;;8.20;99.90;;;;;;5022921;28;20029;-77
2021/03/27 07:37:04;;;;;;;6.78;1.00;;;8.30;99.90;;;;;;5016054;28;20057;-77
2021/03/27 07:39:40;;;;;;;6.45;1.35;;;8.30;99.90;;;;;;5019620;28;20046;-77
2021/03/27 07:42:19;;;;;;;3.33;0.80;;;8.30;99.90;;;;;;5019443;28;20025;-74
2021/03/27 07:45:23;;;;;;;4.97;1.02;;;8.40;99.90;;;;;;5022581;28;20038;-74
2021/03/27 07:48:05;;;;;;;4.20;1.17;;;8.30;99.90;;;;;;5016932;28;20493;-77
2021/03/27 07:50:54;;;;;;;4.53;0.90;;;8.20;99.90;;;;;;5026431;28;20045;-73
2021/03/27 07:53:38;;;;;;;5.43;1.00;;;8.30;99.90;;;;;;5015953;28;20057;-77
2021/03/27 07:56:31;;;;;;;5.47;0.95;;;8.50;99.90;;;;;;5014220;28;20045;-77
2021/03/27 07:59:18;;;;;;;5.13;1.00;;;8.40;99.90;;;;;;5024404;28;20037;-77
2021/03/27 08:02:08;;;;;;;5.22;0.75;;;8.50;99.90;;;;;;5014569;28;20037;-73
2021/03/27 08:05:04;;;;;;;6.05;0.80;;;8.60;99.90;;;;;;5028099;28;20079;-77
2021/03/27 08:07:45;;;;;;;3.83;0.70;;;8.60;99.90;;;;;;5010649;28;20482;-74
2021/03/27 08:11:01;;;;;;;7.03;1.10;;;8.50;99.90;;;;;;5029858;28;20103;-73
2021/03/27 08:14:06;;;;;;;6.20;1.05;;;8.60;99.90;;;;;;5006873;28;20060;-74
2021/03/27 08:16:47;;;;;;;3.42;0.60;;;8.50;99.90;;;;;;5013424;28;20050;-74
2021/03/27 08:19:41;;;;;;;3.45;0.68;;;8.30;99.90;;;;;;5028897;28;20033;-74
2021/03/27 08:22:44;;;;;;;5.82;0.70;;;8.40;99.90;;;;;;5018304;28;20044;-78
2021/03/27 08:25:33;;;;;;;3.30;0.30;;;8.50;99.90;;;;;;5030088;28;20049;-74
2021/03/27 08:28:34;;;;;;;6.38;1.00;;;8.10;99.90;;;;;;5016975;28;20374;-77
2021/03/27 08:31:18;;;;;;;4.97;0.73;;;8.00;99.90;;;;;;5027732;28;20548;-78
2021/03/27 08:34:05;;;;;;;4.43;0.52;;;8.00;99.90;;;;;;5017079;28;20076;-74
2021/03/27 08:36:59;;;;;;;6.70;0.70;;;7.90;99.90;;;;;;5022461;28;20060;-73
2021/03/27 08:39:43;;;;;;;4.97;0.68;;;8.00;99.90;;;;;;5022396;28;20387;-77
2021/03/27 08:42:47;;;;;;;3.88;0.60;;;7.80;99.90;;;;;;5022296;28;20033;-78
2021/03/27 08:45:37;;;;;;;7.40;1.38;;;7.90;99.90;;;;;;5015633;28;20072;-78
2021/03/27 08:48:40;;;;;;;6.60;1.13;;;7.80;99.90;;;;;;5011469;28;20113;-77
2021/03/27 08:51:23;;;;;;;4.93;0.70;;;7.80;99.90;;;;;;5019491;28;20092;-77
2021/03/27 08:54:01;;;;;;;6.20;0.75;;;7.90;99.90;;;;;;5030484;28;20429;-77
2021/03/27 08:56:55;;;;;;;4.88;1.30;;;7.70;99.90;;;;;;5023899;28;20076;-77
2021/03/27 08:59:51;;;;;;;3.80;0.73;;;7.90;99.90;;;;;;5015292;28;20083;-78
2021/03/27 09:02:32;;;;;;;3.47;0.70;;;8.10;99.90;;;;;;5031537;28;20032;-73
2021/03/27 09:05:20;;;;;;;5.13;0.90;;;8.20;99.90;;;;;;5013449;28;20133;-74
2021/03/27 09:08:01;;;;;;;5.38;1.02;;;8.30;99.90;;;;;;5021247;28;21419;-77
2021/03/27 09:10:39;;;;;;;6.72;1.05;;;8.40;99.90;;;;;;5027112;28;20039;-77
2021/03/27 09:13:37;;;;;;;8.23;0.98;;;8.50;99.90;;;;;;5024056;28;20109;-73
2021/03/27 09:16:34;;;;;;;8.75;0.82;;;8.60;99.90;;;;;;5028740;28;20104;-77
2021/03/27 09:19:28;;;;;;;6.70;0.70;;;8.70;99.90;;;;;;5032017;28;20041;-77
2021/03/27 09:22:32;;;;;;;12.55;1.27;;;8.70;99.90;;;;;;5026248;28;20064;-76
2021/03/27 09:25:00;;;;;;;5.85;0.90;;;8.70;99.90;;;;;;5030014;28;20037;-77
2021/03/27 09:27:50;;;;;;;9.80;0.82;;;8.70;99.90;;;;;;5024941;28;20041;-76
2021/03/27 09:30:37;;;;;;;3.42;0.60;;;8.80;99.90;;;;;;5015176;28;20075;-77
2021/03/27 09:33:11;;;;;;;5.32;0.63;;;8.90;99.90;;;;;;5025384;28;20089;-78
2021/03/27 09:36:03;;;;;;;6.07;1.35;;;8.90;99.90;;;;;;5032436;28;20578;-77
2021/03/27 09:38:28;;;;;;;7.55;0.95;;;9.00;99.90;;;;;;5015087;28;20022;-77
2021/03/27 09:41:09;;;;;;;4.20;0.60;;;9.00;99.90;;;;;;5015478;28;20034;-77
2021/03/27 09:44:25;;;;;;;6.68;1.05;;;9.00;99.90;;;;;;5026994;28;20120;-74
2021/03/27 09:47:20;;;;;;;5.82;0.90;;;9.10;99.90;;;;;;5006472;28;20050;-77
2021/03/27 09:50:08;;;;;;;4.78;0.65;;;9.10;99.90;;;;;;5016486;28;20475;-74
2021/03/27 09:52:53;;;;;;;6.35;0.80;;;9.10;99.90;;;;;;5029464;28;20057;-74
2021/03/27 09:55:40;;;;;;;7.88;1.00;;;8.90;99.90;;;;;;5029067;28;20026;-74
2021/03/27 09:58:45;;;;;;;5.38;0.80;;;9.10;99.90;;;;;;5029068;28;20033;-77
2021/03/27 10:01:23;;;;;;;6.28;0.98;;;8.90;99.90;;;;;;5028980;28;20033;-78
2021/03/27 10:04:24;;;;;;;4.38;0.52;;;9.00;99.90;;;;;;5024653;28;20124;-77
2021/03/27 10:07:19;;;;;;;5.30;0.75;;;9.00;99.90;;;;;;5011249;28;20030;-77
2021/03/27 10:10:13;;;;;;;6.32;0.75;;;9.10;99.90;;;;;;5024558;28;20033;-77
2021/03/27 10:13:02;;;;;;;5.03;0.85;;;9.10;99.90;;;;;;5023853;28;20029;-77
2021/03/27 10:15:48;;;;;;;4.60;0.70;;;9.20;99.90;;;;;;5025747;28;20069;-77
2021/03/27 10:18:32;;;;;;;6.45;1.33;;;9.30;99.90;;;;;;5022599;28;20612;-77
2021/03/27 10:21:25;;;;;;;3.40;0.65;;;9.30;99.90;;;;;;5026611;28;20047;-75
2021/03/27 10:24:14;;;;;;;9.80;1.42;;;9.40;99.90;;;;;;5019201;28;20077;-76
2021/03/27 10:27:01;;;;;;;6.47;0.60;;;9.40;99.90;;;;;;5024910;28;20115;-76
2021/03/27 10:29:51;;;;;;;3.88;0.60;;;9.40;99.90;;;;;;5024612;28;20096;-75
2021/03/27 10:32:32;;;;;;;4.65;0.63;;;9.40;99.90;;;;;;5024077;28;20041;-77
2021/03/27 10:35:16;;;;;;;19.75;1.00;;;9.50;99.90;;;;;;5025665;28;20057;-76
2021/03/27 10:38:13;;;;;;;3.42;0.60;;;9.60;99.90;;;;;;5024472;28;20041;-76
2021/03/27 10:40:38;;;;;;;9.13;1.17;;;9.50;99.90;;;;;;5023931;28;20378;-75
2021/03/27 10:43:21;;;;;;;4.93;0.73;;;9.40;99.90;;;;;;5029641;28;20042;-75
2021/03/27 10:46:07;;;;;;;;;;;9.70;99.90;;;;;;5024686;28;20477;-77
2021/03/27 10:48:44;;;;;;;5.45;1.15;;;9.70;99.90;;;;;;5045034;28;19935;-75
2021/03/27 10:51:34;;;;;;;5.50;0.80;;;9.70;99.90;;;;;;5009795;28;20038;-76
2021/03/27 10:54:00;;;;;;;6.15;0.70;;;9.90;99.90;;;;;;5033087;28;20042;-76
2021/03/27 10:56:44;;;;;;;3.58;0.82;;;10.00;99.90;;;;;;5028638;28;20039;-75
2021/03/27 10:59:20;;;;;;;6.90;1.05;;;9.90;99.90;;;;;;5024578;28;20470;-75
2021/03/27 11:02:19;;;;;;;6.70;0.70;;;9.80;99.90;;;;;;5020101;28;20045;-76
2021/03/27 11:05:12;;;;;;;5.57;0.80;;;9.90;99.90;;;;;;5022002;28;20475;-75
2021/03/27 11:08:24;;;;;;;3.67;0.70;;;10.20;99.90;;;;;;5021524;28;20715;-75
2021/03/27 11:11:02;;;;;;;5.53;0.82;;;10.50;99.90;;;;;;5017630;28;20052;-76
2021/03/27 11:13:52;;;;;;;6.18;0.70;;;10.60;99.90;;;;;;5028338;28;20109;-74
2021/03/27 11:16:43;;;;;;;5.75;0.68;;;10.70;99.90;;;;;;5025519;28;20034;-76
2021/03/27 11:19:33;;;;;;;6.38;0.80;;;10.70;99.90;;;;;;5029638;28;20030;-77
2021/03/27 11:22:20;;;;;;;6.85;1.10;;;10.70;99.90;;;;;;5015295;28;20076;-76
2021/03/27 11:25:01;;;;;;;5.47;1.17;;;10.80;99.90;;;;;;5027716;28;20454;-76
2021/03/27 11:27:44;;;;;;;4.47;0.95;;;10.80;99.90;;;;;;5028552;28;20061;-75
2021/03/27 11:30:38;;;;;;;6.82;1.02;;;10.90;99.90;;;;;;5028332;28;20758;-75
2021/03/27 11:33:19;;;;;;;5.75;1.13;;;10.80;99.90;;;;;;5028097;28;20044;-76
2021/03/27 11:35:54;;;;;;;4.53;1.10;;;11.10;99.90;;;;;;5028205;28;20677;-76
2021/03/27 11:38:35;;;;;;;6.35;1.13;;;11.20;99.90;;;;;;5018472;28;20126;-76
2021/03/27 11:41:34;;;;;;;5.32;1.02;;;11.30;99.90;;;;;;5024549;28;20647;-76
2021/03/27 11:44:33;;;;;;;5.35;0.88;;;11.30;99.90;;;;;;5022183;28;20030;-76
2021/03/27 11:46:59;;;;;;;5.43;0.90;;;11.40;99.90;;;;;;5023187;28;20074;-76
2021/03/27 11:50:10;;;;;;;5.10;0.95;;;11.40;99.90;;;;;;5023029;28;20068;-75
2021/03/27 11:53:12;;;;;;;5.82;1.38;;;11.30;99.90;;;;;;5018436;28;20033;-75
2021/03/27 11:56:10;;;;;;;7.50;1.03;;;11.40;99.90;;;;;;5024535;28;20652;-76
2021/03/27 12:02:13;;;;;;;6.18;1.27;;;11.10;99.90;;;;;;5022449;28;20096;-75
2021/03/27 12:05:03;;;;;;;6.05;0.80;;;10.90;99.90;;;;;;5021523;28;20056;-76
2021/03/27 12:07:35;;;;;;;5.28;1.00;;;11.10;99.90;;;;;;5025037;28;20092;-76
2021/03/27 12:10:28;;;;;;;5.30;1.02;;;11.00;99.90;;;;;;5020947;28;20576;-76
2021/03/27 12:13:00;;;;;;;4.25;1.05;;;11.20;99.90;;;;;;5028759;28;20037;-75
2021/03/27 12:15:44;;;;;;;4.30;0.70;;;11.30;99.90;;;;;;5031363;28;20052;-76
2021/03/27 12:18:12;;;;;;;4.68;0.95;;;11.40;99.90;;;;;;5032196;28;20037;-77
2021/03/27 12:20:43;;;;;;;5.65;0.80;;;11.50;99.90;;;;;;5037375;28;20106;-76
2021/03/27 12:23:28;;;;;;;6.32;1.02;;;11.40;99.90;;;;;;5034578;28;20060;-76
2021/03/27 12:26:07;;;;;;;3.80;0.77;;;11.30;99.90;;;;;;5016260;28;20034;-76
2021/03/27 12:28:40;;;;;;;3.78;0.63;;;11.10;99.90;;;;;;5012775;28;20407;-76
2021/03/27 12:31:24;;;;;;;;;;;11.10;99.90;;;;;;5022439;28;20037;-75
2021/03/27 12:34:27;;;;;;;7.10;1.17;;;11.30;99.90;;;;;;5015951;28;19917;-75
2021/03/27 12:37:17;;;;;;;6.38;1.20;;;11.30;99.90;;;;;;5029564;28;20072;-75
2021/03/27 12:40:11;;;;;;;8.27;0.70;;;11.40;99.90;;;;;;5022017;28;20045;-75
2021/03/27 12:42:49;;;;;;;3.65;1.05;;;11.50;99.90;;;;;;5024581;28;20042;-76
2021/03/27 12:45:22;;;;;;;3.88;1.00;;;11.40;99.90;;;;;;5030412;28;20053;-76
2021/03/27 12:48:07;;;;;;;6.82;0.90;;;11.60;99.90;;;;;;5025969;28;20018;-76
2021/03/27 12:50:54;;;;;;;4.00;0.63;;;11.70;99.90;;;;;;5020948;28;20040;-76
2021/03/27 12:53:25;;;;;;;11.85;0.82;;;11.80;99.90;;;;;;5028977;28;20045;-75
2021/03/27 12:56:03;;;;;;;4.55;1.08;;;11.90;99.90;;;;;;5047882;28;20066;-76
2021/03/27 12:58:44;;;;;;;5.93;1.23;;;11.70;99.90;;;;;;5018869;28;20034;-75
2021/03/27 13:01:31;;;;;;;6.00;0.80;;;11.60;99.90;;;;;;5022519;28;20033;-75
2021/03/27 13:04:05;;;;;;;3.72;0.88;;;11.80;99.90;;;;;;5025242;28;20117;-76
2021/03/27 13:06:37;;;;;;;7.55;0.90;;;11.80;99.90;;;;;;5017886;28;20049;-75
2021/03/27 13:09:11;;;;;;;4.15;0.60;;;11.80;99.90;;;;;;5025992;28;20109;-75
2021/03/27 13:11:42;;;;;;;4.53;1.15;;;11.80;99.90;;;;;;5010714;28;20156;-76
2021/03/27 13:14:35;;;;;;;3.70;0.77;;;11.90;99.90;;;;;;5020530;28;20064;-75
2021/03/27 13:17:26;;;;;;;4.03;1.02;;;12.00;99.90;;;;;;5038678;28;20033;-75
2021/03/27 13:20:19;;;;;;;7.43;1.77;;;12.20;99.90;;;;;;5000340;28;20056;-76
2021/03/27 13:23:10;;;;;;;7.28;2.25;;;12.40;99.90;;;;;;5029332;28;20098;-76
2021/03/27 13:25:49;;;;;;;6.60;1.48;;;12.30;99.90;;;;;;5020161;28;20042;-76
2021/03/27 13:28:22;;;;;;;9.90;4.68;;;12.30;99.90;;;;;;5027021;28;20037;-75
2021/03/27 13:30:50;;;;;;;7.97;2.60;;;12.30;99.90;;;;;;5018268;28;20072;-76
2021/03/27 13:33:33;;;;;;;11.25;4.53;;;12.30;99.90;;;;;;5017610;28;20041;-75
2021/03/27 13:36:17;;;;;;;4.75;1.20;;;12.20;99.90;;;;;;5016363;28;20501;-76
2021/03/27 13:38:45;;;;;;;8.35;1.25;;;12.30;99.40;;;;;;5033418;28;20124;-76
2021/03/27 13:41:32;;;;;;;4.03;0.80;;;12.30;99.90;;;;;;5011957;28;20022;-75
2021/03/27 13:44:08;;;;;;;3.38;0.50;;;12.40;99.90;;;;;;5018098;28;20129;-73
2021/03/27 13:46:59;;;;;;;5.00;0.90;;;12.00;99.90;;;;;;5025548;28;20029;-77
2021/03/27 13:49:34;;;;;;;4.57;0.70;;;12.20;99.90;;;;;;5030475;28;20048;-75
2021/03/27 13:52:10;;;;;;;9.73;1.00;;;12.40;99.90;;;;;;5024453;28;20033;-75
2021/03/27 13:54:52;;;;;;;5.72;0.77;;;12.50;99.90;;;;;;5021856;28;20038;-74
2021/03/27 13:57:26;;;;;;;3.97;0.77;;;12.30;99.90;;;;;;5025621;28;20661;-74
2021/03/27 14:00:03;;;;;;;3.53;0.88;;;12.30;99.90;;;;;;5024422;28;20068;-75
2021/03/27 14:02:46;;;;;;;6.10;0.70;;;12.40;99.90;;;;;;5026928;28;20148;-75
2021/03/27 14:05:26;;;;;;;6.00;0.98;;;12.50;99.90;;;;;;5048423;22;20719;-75
2021/03/27 14:08:01;;;;;;;6.35;0.80;;;12.50;99.90;;;;;;4990309;28;20026;-75
2021/03/27 14:10:58;;;;;;;7.30;0.90;;;12.60;99.90;;;;;;4987273;28;20039;-75
2021/03/27 14:13:50;;;;;;;6.15;0.98;;;12.20;99.90;;;;;;4989437;28;20075;-75
2021/03/27 14:16:32;;;;;;;5.63;1.27;;;12.40;99.90;;;;;;4983708;28;20049;-75
2021/03/27 14:19:26;;;;;;;4.93;1.30;;;11.90;99.90;;;;;;4994482;28;20023;-75
2021/03/27 14:22:34;;;;;;;3.08;0.60;;;12.00;99.90;;;;;;4987822;28;20038;-75
2021/03/27 14:25:24;;;;;;;9.18;1.45;;;12.10;99.90;;;;;;4989970;28;20033;-75